Time;durP1;ratioP1;P1;durP2;ratioP2;P2;SDS_P1;SDS_P2;PMS_P1;PMS_P2;Temp;Humidity;BMP_temperature;BMP_pressure;BME280_temperature;BME280_humidity;BME280_pressure;Samples;Min_cycle;Max_cycle;Signal;HPM_P1;HPM_P2
2021/05/20 00:01:13;;;;;;;20.20;12.75;;;7.60;91.20;;;;;;5058043;28;20097;-62
2021/05/20 00:03:39;;;;;;;15.18;11.55;;;7.40;91.10;;;;;;5051884;28;20550;-61
2021/05/20 00:06:05;;;;;;;16.83;11.63;;;7.30;91.20;;;;;;5058265;28;20203;-62
2021/05/20 00:08:31;;;;;;;16.27;11.70;;;7.40;91.30;;;;;;5040812;28;20097;-61
2021/05/20 00:10:59;;;;;;;19.50;11.70;;;7.60;92.30;;;;;;5046166;28;20182;-62
2021/05/20 00:13:25;;;;;;;22.83;11.15;;;6.60;92.10;;;;;;5041818;28;20092;-62
2021/05/20 00:15:51;;;;;;;43.05;12.07;;;7.40;92.30;;;;;;5038189;28;20142;-63
2021/05/20 00:18:17;;;;;;;46.67;11.13;;;7.20;92.20;;;;;;5048306;28;20634;-62
2021/05/20 00:20:44;;;;;;;40.60;11.77;;;6.80;92.10;;;;;;5047687;28;20146;-62
2021/05/20 00:23:10;;;;;;;29.98;11.35;;;7.40;92.20;;;;;;5046799;28;20634;-62
2021/05/20 00:25:36;;;;;;;23.08;10.50;;;7.10;92.40;;;;;;5055093;28;20175;-62
2021/05/20 00:28:02;;;;;;;72.72;13.23;;;7.20;92.40;;;;;;5043486;28;20111;-62
2021/05/20 00:30:28;;;;;;;28.63;10.38;;;7.70;92.50;;;;;;5049354;28;20092;-62
2021/05/20 00:32:54;;;;;;;26.35;10.18;;;;;;;;;;5041672;28;20103;-63
2021/05/20 00:35:22;;;;;;;54.85;11.15;;;7.70;92.70;;;;;;5048250;28;20209;-62
2021/05/20 00:37:48;;;;;;;25.35;11.20;;;7.50;92.80;;;;;;5053986;28;20146;-62
2021/05/20 00:40:14;;;;;;;22.05;10.40;;;7.00;92.50;;;;;;5052624;28;20084;-62
2021/05/20 00:42:48;;;;;;;15.25;10.15;;;7.00;92.40;;;;;;5054719;28;20110;-62
2021/05/20 00:45:14;;;;;;;20.83;11.38;;;7.00;92.20;;;;;;5044691;28;20092;-62
2021/05/20 00:47:40;;;;;;;16.40;11.05;;;6.90;92.20;;;;;;5048165;28;20504;-62
2021/05/20 00:50:09;;;;;;;13.75;10.02;;;7.80;92.40;;;;;;5051344;28;20090;-62
2021/05/20 00:52:35;;;;;;;13.13;9.68;;;7.20;92.20;;;;;;5051038;28;20089;-62
2021/05/20 00:55:04;;;;;;;14.10;10.40;;;6.90;91.90;;;;;;5045497;28;20110;-63
2021/05/20 00:57:30;;;;;;;14.70;10.30;;;6.90;91.90;;;;;;5045989;28;20151;-62
2021/05/20 01:00:08;;;;;;;12.48;9.43;;;6.00;91.80;;;;;;5039637;28;21099;-62
2021/05/20 01:02:37;;;;;;;14.07;10.23;;;6.20;91.90;;;;;;5046662;28;20096;-62
2021/05/20 01:05:08;;;;;;;14.57;10.23;;;6.60;91.90;;;;;;5036424;28;20124;-62
2021/05/20 01:07:34;;;;;;;13.55;9.90;;;6.40;91.90;;;;;;5050810;28;20079;-62
2021/05/20 01:10:01;;;;;;;16.83;10.27;;;6.80;91.90;;;;;;5050989;28;20087;-61
2021/05/20 01:12:27;;;;;;;13.82;10.55;;;7.20;91.80;;;;;;5046789;28;20104;-61
2021/05/20 01:14:53;;;;;;;14.23;10.85;;;6.80;91.90;;;;;;5048551;28;20147;-62
2021/05/20 01:17:19;;;;;;;13.40;9.30;;;6.70;91.90;;;;;;5053508;28;20085;-62
2021/05/20 01:19:46;;;;;;;11.43;9.43;;;6.80;91.70;;;;;;5046255;28;20132;-62
2021/05/20 01:22:14;;;;;;;14.75;11.10;;;6.60;91.40;;;;;;5045505;28;20105;-62
2021/05/20 01:24:40;;;;;;;22.88;11.50;;;6.30;91.80;;;;;;5048852;28;20097;-62
2021/05/20 01:27:08;;;;;;;62.22;12.30;;;6.40;92.00;;;;;;5047959;28;20089;-61
2021/05/20 01:29:35;;;;;;;49.13;12.20;;;7.10;92.40;;;;;;5047153;28;20131;-62
2021/05/20 01:32:02;;;;;;;42.70;10.27;;;6.50;92.30;;;;;;5050580;28;20093;-61
2021/05/20 01:34:32;;;;;;;36.72;11.45;;;7.20;92.40;;;;;;5054582;28;20427;-62
2021/05/20 01:37:07;;;;;;;;;;;6.50;92.00;;;;;;5048696;28;20159;-62
2021/05/20 01:39:35;;;;;;;20.85;9.05;;;5.60;92.20;;;;;;5058918;28;19980;-62
2021/05/20 01:42:01;;;;;;;28.67;9.43;;;6.50;92.70;;;;;;5050570;28;20100;-62
2021/05/20 01:44:27;;;;;;;53.30;11.20;;;6.70;92.70;;;;;;5048031;28;20560;-62
2021/05/20 01:46:53;;;;;;;86.97;13.27;;;6.30;93.30;;;;;;5059595;28;20096;-62
2021/05/20 01:49:19;;;;;;;109.38;15.27;;;5.90;93.00;;;;;;5052369;28;20171;-62
2021/05/20 01:51:45;;;;;;;115.13;14.77;;;6.60;93.20;;;;;;5053288;28;20095;-63
2021/05/20 01:54:11;;;;;;;124.45;14.02;;;6.90;93.30;;;;;;5048983;28;20538;-63
2021/05/20 01:56:37;;;;;;;52.72;11.43;;;6.30;93.40;;;;;;5047584;28;20138;-63
2021/05/20 01:59:04;;;;;;;124.50;14.73;;;6.30;93.60;;;;;;5050247;28;20088;-63
2021/05/20 02:01:30;;;;;;;90.10;12.70;;;6.40;93.40;;;;;;5052630;28;20088;-61
2021/05/20 02:03:56;;;;;;;58.30;11.38;;;6.40;93.30;;;;;;5056496;28;20186;-61
2021/05/20 02:06:22;;;;;;;31.45;9.68;;;6.00;93.20;;;;;;5051177;28;20194;-61
2021/05/20 02:08:48;;;;;;;12.32;9.15;;;6.30;93.40;;;;;;5057892;28;20116;-62
2021/05/20 02:11:14;;;;;;;32.67;9.95;;;6.20;93.40;;;;;;5052824;28;21651;-62
2021/05/20 02:13:40;;;;;;;25.48;9.95;;;6.20;93.60;;;;;;5050720;28;20146;-62
2021/05/20 02:16:07;;;;;;;16.23;9.75;;;6.60;94.00;;;;;;5053989;28;20100;-62
2021/05/20 02:18:33;;;;;;;59.83;10.90;;;6.30;93.60;;;;;;5052421;28;20596;-62
2021/05/20 02:21:00;;;;;;;28.52;10.05;;;;;;;;;;5055543;28;20099;-61
2021/05/20 02:23:25;;;;;;;30.83;9.70;;;8.20;94.30;;;;;;5059548;28;20045;-61
2021/05/20 02:25:51;;;;;;;72.82;13.48;;;6.20;93.80;;;;;;5052019;28;20041;-62
2021/05/20 02:28:17;;;;;;;29.95;10.68;;;6.00;93.80;;;;;;5054342;28;20103;-61
2021/05/20 02:30:44;;;;;;;22.33;9.02;;;6.60;93.70;;;;;;5057001;28;20557;-62
2021/05/20 02:33:10;;;;;;;23.42;9.73;;;5.50;93.80;;;;;;5063735;28;20099;-61
2021/05/20 02:35:36;;;;;;;14.30;8.90;;;5.80;93.80;;;;;;5053977;28;20130;-61
2021/05/20 02:38:03;;;;;;;13.90;9.48;;;6.00;93.40;;;;;;5049906;28;20751;-62
2021/05/20 02:40:29;;;;;;;11.57;8.85;;;5.90;93.60;;;;;;5051496;28;20092;-60
2021/05/20 02:42:55;;;;;;;12.70;8.52;;;5.90;94.00;;;;;;5058022;28;20567;-61
2021/05/20 02:45:24;;;;;;;31.52;9.23;;;5.90;93.20;;;;;;5051618;28;20121;-61
2021/05/20 02:47:51;;;;;;;56.65;11.93;;;5.80;93.80;;;;;;5051206;28;20084;-61
2021/05/20 02:50:20;;;;;;;66.57;10.20;;;5.60;93.70;;;;;;5064506;28;20080;-61
2021/05/20 02:52:46;;;;;;;64.38;10.77;;;6.50;94.00;;;;;;5053304;28;20163;-61
2021/05/20 02:55:20;;;;;;;68.30;12.63;;;5.20;93.90;;;;;;5052606;28;20092;-61
2021/05/20 02:57:55;;;;;;;34.55;10.57;;;5.40;94.00;;;;;;5058187;28;20109;-61
2021/05/20 03:00:22;;;;;;;32.65;10.13;;;5.60;93.30;;;;;;5049248;28;20096;-61
2021/05/20 03:02:50;;;;;;;34.85;9.90;;;5.70;94.00;;;;;;5054641;28;20179;-61
2021/05/20 03:05:17;;;;;;;28.60;8.90;;;4.70;94.20;;;;;;5052078;28;20143;-61
2021/05/20 03:07:43;;;;;;;12.02;9.23;;;5.60;94.00;;;;;;5040668;28;20097;-61
2021/05/20 03:10:10;;;;;;;24.17;11.25;;;5.70;94.40;;;;;;5047502;28;20145;-61
2021/05/20 03:12:36;;;;;;;17.80;9.73;;;5.60;94.60;;;;;;5062119;28;20111;-62
2021/05/20 03:15:04;;;;;;;11.15;8.38;;;4.70;94.10;;;;;;5055250;28;20147;-62
2021/05/20 03:17:33;;;;;;;11.27;8.77;;;6.30;94.30;;;;;;5038241;28;20123;-62
2021/05/20 03:19:59;;;;;;;11.43;9.40;;;;;;;;;;5049139;28;20114;-62
2021/05/20 03:22:25;;;;;;;12.95;9.68;;;5.70;94.10;;;;;;5050225;28;20084;-62
2021/05/20 03:24:51;;;;;;;12.65;10.07;;;;;;;;;;5058276;28;20103;-62
2021/05/20 03:27:18;;;;;;;15.82;11.52;;;5.70;94.50;;;;;;5048966;28;20478;-62
2021/05/20 03:29:44;;;;;;;14.48;9.93;;;5.70;94.30;;;;;;5049321;28;20033;-62
2021/05/20 03:32:10;;;;;;;12.38;9.73;;;5.40;94.50;;;;;;5052569;28;20404;-62
2021/05/20 03:34:36;;;;;;;14.90;11.25;;;4.10;94.40;;;;;;5060276;28;20036;-62
2021/05/20 03:37:03;;;;;;;14.88;11.23;;;5.70;94.50;;;;;;5049982;28;20041;-62
2021/05/20 03:39:32;;;;;;;13.65;10.02;;;5.70;94.20;;;;;;5050665;28;20033;-62
2021/05/20 03:41:58;;;;;;;13.05;10.50;;;6.20;94.50;;;;;;5076680;28;20545;-62
2021/05/20 03:44:24;;;;;;;12.80;9.98;;;5.90;94.20;;;;;;5049551;28;20045;-62
2021/05/20 03:46:50;;;;;;;14.00;10.38;;;6.40;94.30;;;;;;5053285;28;20112;-62
2021/05/20 03:49:17;;;;;;;15.13;10.95;;;5.00;94.00;;;;;;5049097;28;20124;-62
2021/05/20 03:51:43;;;;;;;14.98;11.25;;;6.00;94.70;;;;;;5050147;28;20044;-61
2021/05/20 03:54:08;;;;;;;13.90;11.02;;;6.60;95.10;;;;;;5047949;28;20065;-62
2021/05/20 03:56:34;;;;;;;14.32;10.98;;;5.70;94.40;;;;;;5052151;28;20483;-62
2021/05/20 03:59:00;;;;;;;13.68;9.93;;;5.60;93.90;;;;;;5047055;28;20033;-61
2021/05/20 04:01:26;;;;;;;13.75;11.05;;;5.30;94.00;;;;;;5049365;28;20033;-61
2021/05/20 04:03:51;;;;;;;12.80;10.38;;;5.60;94.10;;;;;;5055915;28;20052;-63
2021/05/20 04:06:17;;;;;;;12.68;10.43;;;5.80;94.10;;;;;;5052221;28;20045;-61
2021/05/20 04:08:43;;;;;;;13.93;9.68;;;5.70;94.00;;;;;;5049299;28;20035;-62
2021/05/20 04:11:09;;;;;;;12.52;10.30;;;5.70;93.90;;;;;;5052490;28;20041;-62
2021/05/20 04:13:39;;;;;;;12.73;10.25;;;5.70;93.90;;;;;;5051565;28;20110;-62
2021/05/20 04:16:07;;;;;;;13.43;9.55;;;5.90;94.00;;;;;;5054011;28;20512;-61
2021/05/20 04:18:33;;;;;;;13.48;11.50;;;5.30;93.80;;;;;;5046154;28;20509;-63
2021/05/20 04:21:03;;;;;;;17.73;12.48;;;5.60;93.20;;;;;;5048209;28;20048;-61
2021/05/20 04:23:31;;;;;;;18.13;12.90;;;5.70;93.90;;;;;;5048528;28;20044;-62
2021/05/20 04:25:57;;;;;;;18.35;12.95;;;6.70;94.40;;;;;;5056470;28;20033;-62
2021/05/20 04:28:23;;;;;;;18.33;13.20;;;5.90;94.10;;;;;;5048816;28;20383;-61
2021/05/20 04:30:50;;;;;;;25.20;15.57;;;6.00;94.50;;;;;;5047294;28;20124;-62
2021/05/20 04:33:16;;;;;;;26.20;15.63;;;;;;;;;;5047960;28;20044;-62
2021/05/20 04:35:42;;;;;;;30.13;17.92;;;6.00;93.90;;;;;;5050513;28;20033;-62
2021/05/20 04:38:09;;;;;;;25.13;17.33;;;7.30;95.20;;;;;;5051313;28;20467;-61
2021/05/20 04:40:37;;;;;;;28.35;16.95;;;6.50;95.40;;;;;;5051899;28;20095;-62
2021/05/20 04:43:03;;;;;;;26.15;16.38;;;7.30;95.30;;;;;;5047276;28;20044;-61
2021/05/20 04:45:29;;;;;;;30.77;16.85;;;5.90;94.90;;;;;;5049284;28;20379;-62
2021/05/20 04:47:55;;;;;;;24.77;16.20;;;6.10;94.30;;;;;;5043376;28;20045;-61
2021/05/20 04:50:21;;;;;;;25.25;17.30;;;6.70;94.60;;;;;;5045752;28;20044;-61
2021/05/20 04:52:48;;;;;;;29.70;18.15;;;8.90;95.60;;;;;;5053024;28;20075;-61
2021/05/20 04:55:15;;;;;;;31.48;17.95;;;6.70;95.20;;;;;;5078561;28;20033;-63
2021/05/20 04:57:42;;;;;;;29.05;16.80;;;;;;;;;;5044075;28;20040;-62
2021/05/20 05:00:10;;;;;;;28.60;17.67;;;6.90;95.10;;;;;;5044574;28;20041;-62
2021/05/20 05:02:36;;;;;;;28.70;19.20;;;6.90;95.20;;;;;;5047058;28;20550;-62
2021/05/20 05:05:03;;;;;;;28.77;19.17;;;7.20;95.10;;;;;;5047276;28;20158;-62
2021/05/20 05:07:29;;;;;;;32.83;20.40;;;7.70;95.30;;;;;;5047855;28;20037;-63
2021/05/20 05:09:55;;;;;;;30.42;19.83;;;7.10;95.10;;;;;;5048523;28;20040;-63
2021/05/20 05:12:21;;;;;;;29.40;18.60;;;7.40;95.20;;;;;;5048154;28;20049;-62
2021/05/20 05:14:47;;;;;;;31.95;20.17;;;7.20;95.00;;;;;;5051412;28;20033;-63
2021/05/20 05:17:13;;;;;;;31.08;18.75;;;7.00;94.90;;;;;;5048904;28;20033;-63
2021/05/20 05:19:40;;;;;;;31.85;20.05;;;7.60;94.90;;;;;;5048376;28;20545;-63
2021/05/20 05:22:06;;;;;;;32.08;19.05;;;8.80;95.30;;;;;;5075050;28;20112;-62
2021/05/20 05:24:32;;;;;;;27.20;18.10;;;9.20;95.30;;;;;;5048518;28;20047;-61
2021/05/20 05:26:58;;;;;;;28.80;19.65;;;7.80;94.70;;;;;;5046645;28;20071;-62
2021/05/20 05:29:25;;;;;;;28.73;18.65;;;7.90;94.70;;;;;;5049926;28;20034;-62
2021/05/20 05:31:51;;;;;;;28.52;18.40;;;8.40;94.90;;;;;;5046435;28;20122;-62
2021/05/20 05:34:17;;;;;;;31.13;19.67;;;8.40;94.90;;;;;;5048963;28;20040;-62
2021/05/20 05:36:44;;;;;;;28.63;19.83;;;8.00;94.40;;;;;;5047598;28;20056;-62
2021/05/20 05:39:10;;;;;;;26.80;17.83;;;8.10;94.30;;;;;;5044643;28;20043;-63
2021/05/20 05:41:36;;;;;;;29.33;19.88;;;8.60;94.60;;;;;;5042113;28;20029;-62
2021/05/20 05:44:03;;;;;;;33.65;21.90;;;8.30;94.80;;;;;;5046101;28;20091;-63
2021/05/20 05:46:29;;;;;;;34.13;21.58;;;8.20;95.10;;;;;;5047530;28;20183;-63
2021/05/20 05:48:57;;;;;;;32.55;20.92;;;8.30;94.90;;;;;;5046671;28;20554;-62
2021/05/20 05:51:25;;;;;;;32.22;22.48;;;8.00;94.80;;;;;;5048618;28;20037;-62
2021/05/20 05:53:50;;;;;;;33.05;20.05;;;8.40;94.80;;;;;;5050489;28;20037;-62
2021/05/20 05:56:16;;;;;;;41.38;23.42;;;8.10;94.90;;;;;;5054356;28;20024;-63
2021/05/20 05:58:42;;;;;;;39.17;22.13;;;8.10;94.80;;;;;;5055761;28;20079;-63
2021/05/20 06:01:08;;;;;;;39.40;23.05;;;;;;;;;;5050437;28;20036;-62
2021/05/20 06:03:35;;;;;;;44.03;25.80;;;8.40;95.10;;;;;;5050205;28;20136;-63
2021/05/20 06:06:01;;;;;;;42.50;26.38;;;9.90;95.10;;;;;;5046954;28;20107;-63
2021/05/20 06:08:27;;;;;;;44.35;26.30;;;8.30;95.20;;;;;;5048239;28;20128;-60
2021/05/20 06:10:53;;;;;;;42.03;26.95;;;7.70;94.60;;;;;;5055459;28;20088;-61
2021/05/20 06:13:19;;;;;;;39.05;24.13;;;9.20;94.80;;;;;;5051574;28;20182;-60
2021/05/20 06:15:45;;;;;;;34.40;22.00;;;9.40;94.50;;;;;;5081659;28;20174;-60
2021/05/20 06:18:11;;;;;;;37.70;24.02;;;9.00;94.30;;;;;;5049471;28;20119;-61
2021/05/20 06:20:37;;;;;;;42.00;26.40;;;8.30;94.50;;;;;;5049672;28;20069;-62
2021/05/20 06:23:03;;;;;;;36.35;22.42;;;9.50;94.50;;;;;;5041996;28;20614;-62
2021/05/20 06:25:29;;;;;;;38.13;25.23;;;9.40;94.40;;;;;;5044167;28;20114;-61
2021/05/20 06:27:55;;;;;;;42.20;27.55;;;9.60;94.70;;;;;;5048067;28;20513;-61
2021/05/20 06:30:21;;;;;;;39.85;24.88;;;9.80;94.50;;;;;;5048312;28;20369;-62
2021/05/20 06:32:47;;;;;;;38.80;24.13;;;10.00;94.20;;;;;;5053491;28;20109;-61
2021/05/20 06:35:13;;;;;;;39.00;25.58;;;10.00;93.70;;;;;;5050108;28;20606;-60
2021/05/20 06:37:39;;;;;;;38.72;24.30;;;10.20;93.80;;;;;;5049440;28;20148;-61
2021/05/20 06:40:06;;;;;;;40.33;25.45;;;10.10;93.40;;;;;;5054824;28;20104;-61
2021/05/20 06:42:33;;;;;;;33.88;23.08;;;11.10;93.70;;;;;;5049158;28;20102;-61
2021/05/20 06:44:59;;;;;;;39.33;24.75;;;10.40;93.50;;;;;;5050811;28;20180;-62
2021/05/20 06:47:25;;;;;;;33.10;19.83;;;10.50;93.60;;;;;;5049694;28;20212;-61
2021/05/20 06:49:51;;;;;;;40.25;24.55;;;10.30;93.50;;;;;;5047701;28;20101;-62
2021/05/20 06:52:17;;;;;;;39.70;25.05;;;10.80;93.50;;;;;;5049213;28;20551;-61
2021/05/20 06:54:44;;;;;;;38.28;22.88;;;12.10;93.30;;;;;;5084405;28;20612;-62
2021/05/20 06:59:58;;;;;;;38.35;24.55;;;11.20;92.10;;;;;;5045454;28;20097;-61
2021/05/20 07:02:28;;;;;;;41.38;23.25;;;11.70;93.30;;;;;;5038630;28;20184;-61
2021/05/20 07:04:55;;;;;;;36.08;24.75;;;11.00;92.80;;;;;;5046852;28;20174;-62
2021/05/20 07:07:21;;;;;;;38.15;23.80;;;11.10;92.10;;;;;;5055264;28;20178;-60
2021/05/20 07:09:48;;;;;;;35.35;24.20;;;10.80;92.10;;;;;;5082655;28;20124;-60
2021/05/20 07:12:16;;;;;;;35.22;22.45;;;9.80;91.40;;;;;;5051706;28;20116;-60
2021/05/20 07:14:43;;;;;;;30.90;21.63;;;11.10;91.70;;;;;;5049640;28;20148;-60
2021/05/20 07:17:09;;;;;;;30.17;20.35;;;11.10;91.70;;;;;;5050479;28;20098;-61
2021/05/20 07:19:35;;;;;;;30.45;21.17;;;11.10;91.50;;;;;;5055732;28;20089;-61
2021/05/20 07:22:03;;;;;;;31.45;21.10;;;10.80;91.30;;;;;;5082210;28;20141;-61
2021/05/20 07:24:30;;;;;;;28.50;19.40;;;11.10;91.80;;;;;;5050551;28;20104;-61
2021/05/20 07:26:56;;;;;;;30.73;20.63;;;11.70;91.60;;;;;;5054965;28;20626;-62
2021/05/20 07:29:22;;;;;;;30.58;20.00;;;11.70;92.10;;;;;;5047869;28;20093;-61
2021/05/20 07:31:48;;;;;;;26.73;18.83;;;11.30;92.10;;;;;;5052036;28;20133;-61
2021/05/20 07:34:14;;;;;;;27.35;19.20;;;11.50;90.70;;;;;;5046808;28;20087;-61
2021/05/20 07:36:41;;;;;;;27.80;20.65;;;11.80;90.70;;;;;;5048234;28;20561;-62
2021/05/20 07:39:08;;;;;;;26.35;18.40;;;11.80;90.80;;;;;;5046094;28;20089;-63
2021/05/20 07:41:34;;;;;;;22.63;15.40;;;12.10;89.50;;;;;;5050411;28;20131;-62
2021/05/20 07:44:02;;;;;;;21.52;15.27;;;12.00;89.90;;;;;;5042646;28;20120;-62
2021/05/20 07:46:28;;;;;;;18.38;14.40;;;12.40;87.60;;;;;;5049236;28;20544;-62
2021/05/20 07:48:53;;;;;;;18.05;12.00;;;12.20;88.00;;;;;;5054677;28;20044;-62
2021/05/20 07:51:19;;;;;;;22.00;14.82;;;10.70;88.30;;;;;;5051831;28;20117;-62
2021/05/20 07:53:45;;;;;;;12.48;10.05;;;12.30;89.40;;;;;;5049808;28;20096;-63
2021/05/20 07:56:11;;;;;;;17.92;12.70;;;12.90;83.40;;;;;;5043165;28;20394;-62
2021/05/20 07:58:37;;;;;;;13.27;10.23;;;12.80;83.10;;;;;;5046600;28;20094;-62
2021/05/20 08:01:04;;;;;;;16.63;11.25;;;12.90;83.60;;;;;;5049898;28;20093;-63
2021/05/20 08:03:40;;;;;;;14.63;11.80;;;13.20;84.10;;;;;;5032246;28;20461;-62
2021/05/20 08:06:25;;;;;;;15.40;9.55;;;13.30;84.80;;;;;;5048643;28;20528;-62
2021/05/20 08:09:27;;;;;;;16.02;11.55;;;13.80;80.60;;;;;;5050381;28;20152;-63
2021/05/20 08:11:43;;;;;;;11.40;9.63;;;13.80;78.20;;;;;;5051024;28;20104;-61
2021/05/20 08:14:09;;;;;;;13.43;9.55;;;13.80;78.90;;;;;;5046585;28;20089;-61
2021/05/20 08:16:35;;;;;;;13.15;9.15;;;14.00;79.70;;;;;;5052038;28;20103;-62
2021/05/20 08:19:01;;;;;;;11.68;9.20;;;14.60;78.90;;;;;;5055330;28;20094;-62
2021/05/20 08:21:39;;;;;;;11.13;9.07;;;14.90;73.90;;;;;;5044420;28;20465;-60
2021/05/20 08:24:06;;;;;;;12.88;9.65;;;14.90;72.50;;;;;;5042541;28;20066;-60
2021/05/20 08:26:32;;;;;;;12.50;8.95;;;14.70;72.30;;;;;;5054683;28;20038;-61
2021/05/20 08:28:58;;;;;;;10.98;9.13;;;14.90;70.60;;;;;;5048879;28;20480;-61
2021/05/20 08:31:25;;;;;;;10.93;8.23;;;14.80;71.20;;;;;;5046831;28;20090;-61
2021/05/20 08:33:51;;;;;;;10.13;7.68;;;14.80;73.40;;;;;;5038623;28;20107;-61
2021/05/20 08:36:17;;;;;;;10.75;7.25;;;15.20;74.90;;;;;;5049343;28;20196;-61
2021/05/20 08:38:43;;;;;;;11.10;7.50;;;15.70;71.70;;;;;;5056799;28;20172;-61
2021/05/20 08:41:09;;;;;;;10.43;7.78;;;16.30;65.70;;;;;;5049984;28;20099;-61
2021/05/20 08:43:35;;;;;;;10.23;7.95;;;16.80;69.70;;;;;;5044994;28;20097;-62
2021/05/20 08:46:01;;;;;;;13.02;7.50;;;17.00;62.60;;;;;;5047635;28;20327;-61
2021/05/20 08:48:27;;;;;;;8.25;6.72;;;16.80;62.00;;;;;;5051475;28;20072;-61
2021/05/20 08:50:53;;;;;;;11.55;7.38;;;16.50;60.80;;;;;;5061639;28;20060;-61
2021/05/20 08:53:18;;;;;;;10.93;7.28;;;16.20;62.30;;;;;;5045497;28;20104;-62
2021/05/20 08:55:44;;;;;;;12.20;8.73;;;16.00;64.00;;;;;;5045415;28;20111;-61
2021/05/20 08:58:10;;;;;;;13.43;8.18;;;15.30;64.10;;;;;;5051851;28;20486;-60
2021/05/20 09:00:39;;;;;;;15.50;9.07;;;15.80;65.70;;;;;;5046977;28;20055;-61
2021/05/20 09:03:08;;;;;;;11.32;9.40;;;14.90;64.40;;;;;;5047116;28;20131;-60
2021/05/20 09:05:35;;;;;;;12.65;9.52;;;15.40;67.40;;;;;;5052434;28;20149;-60
2021/05/20 09:08:04;;;;;;;11.02;7.93;;;15.50;67.60;;;;;;5043393;28;20166;-60
2021/05/20 09:10:32;;;;;;;9.63;8.20;;;15.50;66.00;;;;;;5046956;28;20081;-60
2021/05/20 09:13:03;;;;;;;13.07;7.13;;;15.30;64.40;;;;;;5043892;28;20494;-60
2021/05/20 09:15:36;;;;;;;11.45;8.00;;;13.10;64.20;;;;;;5046199;28;20075;-60
2021/05/20 09:18:07;;;;;;;10.68;8.38;;;14.90;66.00;;;;;;5051900;28;20032;-60
2021/05/20 09:20:34;;;;;;;14.15;8.65;;;14.80;67.20;;;;;;5049713;28;20058;-60
2021/05/20 09:23:11;;;;;;;14.38;8.65;;;14.50;69.10;;;;;;5048240;28;20155;-60
2021/05/20 09:25:39;;;;;;;11.85;8.95;;;12.70;69.90;;;;;;5044676;28;20061;-60
2021/05/20 09:28:07;;;;;;;11.82;8.75;;;14.10;71.10;;;;;;5057739;28;20092;-61
2021/05/20 09:30:36;;;;;;;8.80;7.47;;;14.20;72.10;;;;;;5046463;28;20121;-61
2021/05/20 09:33:09;;;;;;;12.82;8.02;;;14.70;66.80;;;;;;5048808;28;20097;-60
2021/05/20 09:35:39;;;;;;;10.35;7.88;;;15.00;66.50;;;;;;5049569;28;20085;-60
2021/05/20 09:38:07;;;;;;;12.55;7.45;;;15.60;62.80;;;;;;5048019;28;20089;-60
2021/05/20 09:40:39;;;;;;;11.98;9.23;;;15.20;65.20;;;;;;5045005;28;20161;-60
2021/05/20 09:43:21;;;;;;;13.57;9.45;;;15.50;65.90;;;;;;5039594;28;20449;-61
2021/05/20 09:45:53;;;;;;;12.15;9.20;;;15.90;64.30;;;;;;5046217;28;20179;-60
2021/05/20 09:48:22;;;;;;;11.63;9.10;;;16.20;64.10;;;;;;5048488;28;20089;-61
2021/05/20 09:50:50;;;;;;;11.82;9.77;;;17.10;59.50;;;;;;5046892;28;20085;-61
2021/05/20 09:53:18;;;;;;;12.55;9.60;;;16.60;59.50;;;;;;5048531;28;20093;-62
2021/05/20 09:55:47;;;;;;;11.68;9.30;;;16.50;60.00;;;;;;5046965;28;20480;-62
2021/05/20 09:58:13;;;;;;;14.23;10.18;;;16.60;61.80;;;;;;5047668;28;20113;-62
2021/05/20 10:00:39;;;;;;;13.60;9.63;;;16.80;60.10;;;;;;5049076;28;20085;-62
2021/05/20 10:03:12;;;;;;;12.88;9.10;;;16.70;61.60;;;;;;5046187;28;20180;-63
2021/05/20 10:05:44;;;;;;;10.05;8.63;;;16.90;62.90;;;;;;5047433;28;20094;-63
2021/05/20 10:08:14;;;;;;;12.45;8.98;;;17.10;59.60;;;;;;5043984;28;20090;-63
2021/05/20 10:10:42;;;;;;;11.00;8.50;;;17.10;58.80;;;;;;5047756;28;20100;-62
2021/05/20 10:13:11;;;;;;;13.35;8.23;;;16.90;59.30;;;;;;5045459;28;20094;-62
2021/05/20 10:15:39;;;;;;;9.50;7.13;;;16.80;60.10;;;;;;5045446;28;20090;-62
2021/05/20 10:18:11;;;;;;;8.48;6.53;;;18.00;60.30;;;;;;5046715;28;20128;-62
2021/05/20 10:20:38;;;;;;;8.23;6.10;;;16.80;57.70;;;;;;5048160;28;20085;-62
2021/05/20 10:23:12;;;;;;;9.88;6.45;;;16.50;58.70;;;;;;5050161;28;20553;-62
2021/05/20 10:25:40;;;;;;;8.55;6.82;;;16.30;60.40;;;;;;5046228;28;20089;-63
2021/05/20 10:28:07;;;;;;;7.15;6.22;;;16.20;60.00;;;;;;5049845;28;20040;-63
2021/05/20 10:30:35;;;;;;;7.40;5.90;;;16.20;58.50;;;;;;5048373;28;20440;-63
2021/05/20 10:33:01;;;;;;;11.43;6.80;;;16.20;57.70;;;;;;5040714;28;20055;-62
2021/05/20 10:35:44;;;;;;;11.23;8.50;;;15.50;60.60;;;;;;5042845;28;20060;-62
2021/05/20 10:38:11;;;;;;;13.82;10.32;;;15.90;61.40;;;;;;4005679;28;10001007;-62
2021/05/20 10:40:38;;;;;;;9.73;7.47;;;15.50;62.20;;;;;;5079369;28;20489;-62
2021/05/20 10:43:13;;;;;;;9.85;7.40;;;15.50;61.10;;;;;;5073210;28;20104;-62
2021/05/20 10:45:41;;;;;;;8.13;6.60;;;15.50;61.60;;;;;;5046327;28;20120;-62
2021/05/20 10:48:08;;;;;;;9.27;6.20;;;15.60;62.10;;;;;;5046819;28;20081;-62
2021/05/20 10:50:52;;;;;;;10.10;7.63;;;15.80;60.60;;;;;;5041071;28;20094;-61
2021/05/20 10:53:37;;;;;;;9.25;6.78;;;16.30;60.50;;;;;;5048446;28;20603;-61
2021/05/20 10:56:04;;;;;;;11.65;7.43;;;16.10;61.20;;;;;;5043496;28;20173;-61
2021/05/20 10:58:31;;;;;;;8.85;7.43;;;16.20;61.10;;;;;;5046936;28;20125;-61
2021/05/20 11:00:56;;;;;;;11.98;6.80;;;16.30;59.70;;;;;;5049730;28;20550;-61
2021/05/20 11:03:50;;;;;;;6.88;5.32;;;16.30;59.90;;;;;;5048845;28;20108;-61
2021/05/20 11:06:17;;;;;;;9.30;6.72;;;16.10;57.10;;;;;;5051705;28;20167;-61
2021/05/20 11:08:46;;;;;;;10.52;7.65;;;16.20;57.40;;;;;;5051628;28;20082;-61
2021/05/20 11:11:30;;;;;;;9.60;7.63;;;16.30;59.80;;;;;;5049075;28;20086;-61
2021/05/20 11:14:04;;;;;;;12.77;8.15;;;16.40;58.20;;;;;;5057457;28;20104;-61
2021/05/20 11:16:37;;;;;;;13.70;9.40;;;16.60;59.50;;;;;;5047859;28;20196;-61
2021/05/20 11:19:25;;;;;;;9.68;6.05;;;16.70;56.90;;;;;;5053299;28;20550;-61
2021/05/20 11:22:04;;;;;;;16.05;9.88;;;16.90;55.40;;;;;;5044883;28;20081;-61
2021/05/20 11:24:31;;;;;;;17.30;11.85;;;17.20;60.00;;;;;;5057768;28;20100;-62
2021/05/20 11:27:09;;;;;;;16.98;12.02;;;16.90;60.60;;;;;;5052294;28;20093;-61
2021/05/20 11:29:37;;;;;;;14.38;10.35;;;17.20;59.80;;;;;;5051773;28;20564;-61
2021/05/20 11:32:27;;;;;;;16.40;10.93;;;17.10;58.80;;;;;;5052778;28;20100;-61
2021/05/20 11:37:39;;;;;;;17.95;13.15;;;18.60;56.90;;;;;;5052552;28;20625;-61
2021/05/20 11:40:06;;;;;;;15.32;9.98;;;19.10;56.90;;;;;;5042991;28;20089;-62
2021/05/20 11:42:33;;;;;;;16.52;10.82;;;16.50;57.00;;;;;;5052089;28;20566;-61
2021/05/20 11:45:01;;;;;;;16.20;10.13;;;17.70;57.70;;;;;;5050024;28;20408;-61
2021/05/20 11:47:27;;;;;;;19.63;12.60;;;17.60;54.30;;;;;;5050336;28;20094;-62
2021/05/20 11:49:54;;;;;;;18.48;13.65;;;17.80;54.90;;;;;;5050737;28;20093;-61
2021/05/20 11:52:21;;;;;;;19.48;13.55;;;17.50;56.80;;;;;;5050827;28;20105;-61
2021/05/20 11:54:49;;;;;;;22.23;15.10;;;17.50;57.40;;;;;;5048330;28;20168;-62
2021/05/20 11:57:21;;;;;;;15.45;12.25;;;16.80;56.60;;;;;;5046950;28;20144;-61
2021/05/20 11:59:50;;;;;;;10.68;7.70;;;17.70;57.90;;;;;;5049430;28;20085;-61
2021/05/20 12:02:21;;;;;;;11.98;8.65;;;18.00;54.00;;;;;;5049062;28;20570;-61
2021/05/20 12:04:47;;;;;;;13.63;9.90;;;18.00;51.90;;;;;;5053967;28;20089;-61
2021/05/20 12:07:27;;;;;;;10.23;7.22;;;17.80;52.10;;;;;;5043544;28;20582;-61
2021/05/20 12:09:55;;;;;;;9.10;6.88;;;17.90;52.90;;;;;;5051294;28;20512;-61
2021/05/20 12:12:22;;;;;;;9.15;6.05;;;18.10;50.10;;;;;;5049961;28;20179;-61
2021/05/20 12:14:51;;;;;;;10.80;7.88;;;18.30;47.10;;;;;;5048934;28;20098;-61
2021/05/20 12:17:19;;;;;;;7.95;6.65;;;18.40;46.70;;;;;;5045622;28;20086;-61
2021/05/20 12:19:53;;;;;;;9.25;6.63;;;18.00;46.00;;;;;;5049025;28;20085;-61
2021/05/20 12:22:27;;;;;;;8.13;5.65;;;17.80;46.30;;;;;;5047179;28;20116;-62
2021/05/20 12:24:55;;;;;;;9.48;6.43;;;18.10;46.80;;;;;;5049022;28;20093;-61
2021/05/20 12:27:28;;;;;;;7.78;5.85;;;17.90;48.50;;;;;;5052176;28;20093;-61
2021/05/20 12:29:59;;;;;;;9.27;7.47;;;18.10;46.70;;;;;;5055039;28;20094;-62
2021/05/20 12:32:30;;;;;;;8.55;6.38;;;17.60;44.90;;;;;;5048585;28;20093;-62
2021/05/20 12:35:10;;;;;;;9.07;6.60;;;18.30;45.10;;;;;;5059145;28;20093;-62
2021/05/20 12:37:50;;;;;;;10.07;6.32;;;18.30;47.50;;;;;;5047879;28;20615;-62
2021/05/20 12:40:26;;;;;;;9.93;7.82;;;18.40;49.10;;;;;;5049653;28;20560;-62
2021/05/20 12:43:02;;;;;;;13.43;9.27;;;18.40;48.90;;;;;;5043882;28;20450;-61
2021/05/20 12:45:29;;;;;;;12.75;9.63;;;18.70;50.30;;;;;;5047879;28;20085;-63
2021/05/20 12:47:55;;;;;;;17.58;10.52;;;18.30;51.40;;;;;;5037909;28;20086;-62